This is the latest recevied weather packets stored in our database for station/object DL1NUX-15. If no packets are shown the sender has not sent any weather packets the latest 10 day(s).
| Time | Temp. | Humidity | Pressure | Rain* | Wind** | Luminosity | Snow |
|---|---|---|---|---|---|---|---|
| 1777830358 | 21.67° C | 42% | 1013 hPa | 0 mm | - | 29 W/m² | - |
| 1777829759 | 21.67° C | 41% | 1013.1 hPa | 0 mm | - | 33 W/m² | - |
| 1777829159 | 22.22° C | 41% | 1013.3 hPa | 0 mm | - | 39 W/m² | - |
| 1777828560 | 22.22° C | 40% | 1013.2 hPa | 0 mm | - | 48 W/m² | - |
| 1777827361 | 22.78° C | 38% | 1013.4 hPa | 0 mm | - | 60 W/m² | - |
| 1777826760 | 22.78° C | 38% | 1013.4 hPa | 0 mm | - | 71 W/m² | - |
| 1777826161 | 23.33° C | 39% | 1013.4 hPa | 0 mm | - | 93 W/m² | - |
| 1777820749 | 25° C | 34% | 1013.4 hPa | 0 mm | - | 272 W/m² | - |
| 1777818350 | 25.56° C | 33% | 1013.8 hPa | 0 mm | - | 280 W/m² | - |
| 1777817751 | 25.56° C | 33% | 1013.9 hPa | 0 mm | - | 292 W/m² | - |
| 1777816551 | 25.56° C | 33% | 1014 hPa | 0 mm | - | 443 W/m² | - |
| 1777815952 | 25.56° C | 31% | 1014 hPa | 0 mm | - | 481 W/m² | - |
| 1777814726 | 26.11° C | 31% | 1014.4 hPa | 0 mm | - | 480 W/m² | - |
| 1777811755 | 24.44° C | 34% | 1014.9 hPa | 0 mm | - | 501 W/m² | - |
| 1777808729 | 25° C | 34% | 1015.4 hPa | 0 mm | - | 454 W/m² | - |
| 1777806330 | 24.44° C | 36% | 1015.8 hPa | 0 mm | - | 567 W/m² | - |
| 1777804533 | 23.33° C | 37% | 1016.2 hPa | 0 mm | - | 549 W/m² | - |
| 1777802733 | 21.67° C | 41% | 1016.6 hPa | 0 mm | - | 648 W/m² | - |
| 1777796137 | 20.56° C | 41% | 1017 hPa | 0 mm | - | 601 W/m² | - |
| 1777793124 | 18.33° C | 47% | 1017 hPa | 0 mm | - | 379 W/m² | - |
| 1777792524 | 18.33° C | 49% | 1017 hPa | 0 mm | - | 276 W/m² | - |
| 1777788926 | 16.11° C | 57% | 1017.2 hPa | 0 mm | - | 190 W/m² | - |
| 1777786528 | 12.22° C | 68% | 1016.9 hPa | 0 mm | - | 132 W/m² | - |
| 1777785329 | 11.67° C | 68% | 1016.8 hPa | 0 mm | - | 78 W/m² | - |
| 1777784730 | 11.11° C | 71% | 1016.9 hPa | 0 mm | - | 60 W/m² | - |
* Rain latest hour (hover to see other rain measurements)
** Current wind speed in m/s (hover to see current wind gust speed)